Bleecker, New York
Current Conditions -  °F | °C
As of 11:15 AM on Thursday 29 Jan 2015 (Local Time) from KNY0 Reporting Station
Clear Clear  
Wind Chill:   Ceiling: Unl
Heat Index: 16°   Visibility: 10mi
Dew Point: -2°   Wind: 5mph
Humidity: 45%   Direction: 50°NE
Pressure: 30.19"   Gusts: NA
Location:  43.1204°N, 74.3629°W
Report Text: KNY0 291615Z AUTO 05004KT 10SM CLR M09/M19 A3019 RMK AO2 T10891189
Loading
Personal Weather Stations






























Interactive Weather Map New forecast layout! Learn more

10-Day Weather Forecast

Advertisements
Track Severe Weather on mobile